createdAt,value
2022-08-03T00:01:18.251Z,23.10
2022-08-03T00:03:51.664Z,21.90
2022-08-03T00:06:25.167Z,26.80
2022-08-03T00:08:58.724Z,23.30
2022-08-03T00:11:32.167Z,24.50
2022-08-03T00:14:05.908Z,23.90
2022-08-03T00:16:39.319Z,20.20
2022-08-03T00:19:12.789Z,19.50
2022-08-03T00:21:46.082Z,28.30
2022-08-03T00:24:19.683Z,18.70
2022-08-03T00:26:53.442Z,22.50
2022-08-03T00:29:26.564Z,23.30
2022-08-03T00:32:00.492Z,20.70
2022-08-03T00:34:36.727Z,21.30
2022-08-03T00:37:41.408Z,20.40
2022-08-03T00:42:54.345Z,18.40
2022-08-03T00:45:29.599Z,20.20
2022-08-03T00:48:03.303Z,20.20
2022-08-03T00:50:41.013Z,26.10
2022-08-03T00:53:15.724Z,23.20
2022-08-03T00:55:51.767Z,21.90
2022-08-03T00:58:25.826Z,21.40
2022-08-03T01:00:59.374Z,25.10
2022-08-03T01:03:32.601Z,19.70
2022-08-03T01:06:36.072Z,20.90
2022-08-03T01:09:17.376Z,22.00
2022-08-03T01:11:59.888Z,19.50
2022-08-03T01:14:40.706Z,20.00
2022-08-03T01:17:21.594Z,18.80
2022-08-03T01:20:01.902Z,20.50
2022-08-03T01:23:10.418Z,21.10
2022-08-03T01:26:12.363Z,17.40
2022-08-03T01:29:11.867Z,20.40
2022-08-03T01:32:54.538Z,20.90
2022-08-03T01:34:56.944Z,17.80
2022-08-03T01:37:39.729Z,15.90
2022-08-03T01:40:18.287Z,23.00
2022-08-03T01:45:33.961Z,22.00
2022-08-03T01:48:13.127Z,20.60
2022-08-03T01:50:51.392Z,19.90
2022-08-03T01:53:27.616Z,18.30
2022-08-03T01:56:04.767Z,20.60
2022-08-03T01:58:43.140Z,23.10
2022-08-03T02:01:20.573Z,16.90
2022-08-03T02:04:00.919Z,16.50
2022-08-03T02:07:02.232Z,22.10
2022-08-03T02:09:36.934Z,19.90
2022-08-03T02:12:16.363Z,17.30
2022-08-03T02:14:53.646Z,16.00
2022-08-03T02:17:39.618Z,22.20
2022-08-03T02:20:18.280Z,23.10
2022-08-03T02:22:54.207Z,17.50
2022-08-03T02:25:30.995Z,17.20
2022-08-03T02:28:13.394Z,16.60
2022-08-03T02:30:54.683Z,17.20
2022-08-03T02:33:33.256Z,21.70
2022-08-03T02:36:10.306Z,16.70
2022-08-03T02:38:51.549Z,19.70
2022-08-03T02:41:31.861Z,19.00
2022-08-03T02:44:15.070Z,20.90
2022-08-03T02:46:52.077Z,21.00
2022-08-03T02:49:41.462Z,18.80
2022-08-03T02:52:26.874Z,16.00
2022-08-03T02:55:04.922Z,19.00
2022-08-03T02:57:41.711Z,18.00
2022-08-03T03:00:27.659Z,16.20
2022-08-03T03:03:06.751Z,17.40
2022-08-03T03:05:52.072Z,20.80
2022-08-03T03:08:30.705Z,17.40
2022-08-03T03:11:05.531Z,21.90
2022-08-03T03:13:39.568Z,21.00
2022-08-03T03:16:15.979Z,21.40
2022-08-03T03:18:51.406Z,18.00
2022-08-03T03:21:25.427Z,17.60
2022-08-03T03:23:59.501Z,21.50
2022-08-03T03:26:33.061Z,19.10
2022-08-03T03:29:06.928Z,19.40
2022-08-03T03:31:40.853Z,16.80
2022-08-03T03:34:14.709Z,19.40
2022-08-03T03:36:48.477Z,19.60
2022-08-03T03:39:22.080Z,17.50
2022-08-03T03:41:55.815Z,19.20
2022-08-03T03:44:32.126Z,16.80
2022-08-03T03:47:06.553Z,22.40
2022-08-03T03:49:41.493Z,19.10
2022-08-03T03:52:15.187Z,19.80
2022-08-03T03:54:49.202Z,20.40
2022-08-03T03:57:22.707Z,23.80
2022-08-03T03:59:55.965Z,16.10
2022-08-03T04:02:29.474Z,16.40
2022-08-03T04:05:20.681Z,15.80
2022-08-03T04:08:18.092Z,18.70
2022-08-03T04:11:04.811Z,18.60
2022-08-03T04:13:41.685Z,19.80
2022-08-03T04:16:18.494Z,18.80
2022-08-03T04:19:02.630Z,18.30
2022-08-03T04:21:37.434Z,22.10
2022-08-03T04:24:14.371Z,18.60
2022-08-03T04:26:52.761Z,21.00
2022-08-03T04:32:03.349Z,22.50
2022-08-03T04:34:37.488Z,18.90
2022-08-03T04:37:22.679Z,22.20
2022-08-03T04:39:58.935Z,20.20
2022-08-03T04:42:34.970Z,21.50
2022-08-03T04:45:09.829Z,19.30
2022-08-03T04:47:43.679Z,21.80
2022-08-03T04:50:21.326Z,21.90
2022-08-03T04:53:10.781Z,20.40
2022-08-03T04:55:44.683Z,22.40
2022-08-03T04:58:17.746Z,28.10
2022-08-03T05:00:52.478Z,32.80
2022-08-03T05:03:26.168Z,28.70
2022-08-03T05:06:01.902Z,23.50
2022-08-03T05:08:47.080Z,28.40
2022-08-03T05:13:53.966Z,24.10
2022-08-03T05:16:27.445Z,23.20
2022-08-03T05:19:00.932Z,22.00
2022-08-03T05:21:52.006Z,25.30
2022-08-03T05:24:26.469Z,22.70
2022-08-03T05:26:59.715Z,22.20
2022-08-03T05:29:33.277Z,31.00
2022-08-03T05:32:16.478Z,28.20
2022-08-03T05:34:50.763Z,22.60
2022-08-03T05:37:24.259Z,27.40
2022-08-03T05:39:57.744Z,22.50
2022-08-03T05:42:31.428Z,26.30
2022-08-03T05:45:15.195Z,28.10
2022-08-03T05:47:51.357Z,29.10
2022-08-03T05:50:25.185Z,24.00
2022-08-03T05:53:00.516Z,24.80
2022-08-03T05:55:34.127Z,28.80
2022-08-03T05:58:07.855Z,32.30
2022-08-03T06:00:41.033Z,30.70
2022-08-03T06:03:14.081Z,27.50
2022-08-03T06:06:00.019Z,30.60
2022-08-03T06:08:33.996Z,24.90
2022-08-03T06:11:07.450Z,26.10
2022-08-03T06:13:41.459Z,23.70
2022-08-03T06:16:15.405Z,27.60
2022-08-03T06:18:49.556Z,25.10
2022-08-03T06:21:22.867Z,20.30
2022-08-03T06:23:55.928Z,25.90
2022-08-03T06:26:30.785Z,53.30
2022-08-03T06:29:04.399Z,26.20
2022-08-03T06:31:38.487Z,27.10
2022-08-03T06:34:34.350Z,26.20
2022-08-03T06:37:05.534Z,24.30
2022-08-03T06:39:38.793Z,22.40
2022-08-03T06:42:12.083Z,26.50
2022-08-03T06:44:45.668Z,23.00
2022-08-03T06:47:19.030Z,23.70
2022-08-03T06:50:17.275Z,23.30
2022-08-03T06:52:45.673Z,24.70
2022-08-03T06:55:19.207Z,25.70
2022-08-03T06:57:52.449Z,20.40
2022-08-03T07:00:26.640Z,20.10
2022-08-03T07:03:00.096Z,20.80
2022-08-03T07:05:35.449Z,21.40
2022-08-03T07:08:09.153Z,20.00
2022-08-03T07:10:42.541Z,60.40
2022-08-03T07:13:16.206Z,34.00
2022-08-03T07:15:55.571Z,26.00
2022-08-03T07:18:30.214Z,22.60
2022-08-03T07:21:04.000Z,20.10
2022-08-03T07:23:37.317Z,20.60
2022-08-03T07:26:10.777Z,18.60
2022-08-03T07:28:44.269Z,19.20
2022-08-03T07:31:17.665Z,23.50
2022-08-03T07:33:51.546Z,18.40
2022-08-03T07:36:25.056Z,22.50
2022-08-03T07:38:59.892Z,18.20
2022-08-03T07:41:33.489Z,20.00
2022-08-03T07:44:07.170Z,18.70
2022-08-03T07:46:40.710Z,21.70
2022-08-03T07:49:14.024Z,15.60
2022-08-03T07:52:07.431Z,24.80
2022-08-03T07:54:40.941Z,18.00
2022-08-03T07:57:14.539Z,18.40
2022-08-03T08:00:01.813Z,17.30
2022-08-03T08:02:45.414Z,17.10
2022-08-03T08:05:18.697Z,14.40
2022-08-03T08:07:52.218Z,14.30
2022-08-03T08:10:25.977Z,10.30
2022-08-03T08:12:59.853Z,11.40
2022-08-03T08:15:33.361Z,9.90
2022-08-03T08:18:07.021Z,11.50
2022-08-03T08:20:40.398Z,11.10
2022-08-03T08:23:40.866Z,9.90
2022-08-03T08:26:09.981Z,13.20
2022-08-03T08:28:43.898Z,8.90
2022-08-03T08:31:17.604Z,9.80
2022-08-03T08:34:06.676Z,7.80
2022-08-03T08:36:40.351Z,10.90
2022-08-03T08:39:13.720Z,10.30
2022-08-03T08:41:54.381Z,9.50
2022-08-03T08:44:28.134Z,11.70
2022-08-03T08:47:04.537Z,8.80
2022-08-03T08:49:49.368Z,8.40
2022-08-03T08:52:35.011Z,7.70
2022-08-03T08:55:11.022Z,6.00
2022-08-03T08:57:50.414Z,6.90
2022-08-03T09:00:23.974Z,6.30
2022-08-03T09:02:57.464Z,6.20
2022-08-03T09:05:54.992Z,6.00
2022-08-03T09:08:27.782Z,6.30
2022-08-03T09:11:03.946Z,6.40
2022-08-03T09:13:38.448Z,6.50
2022-08-03T09:16:16.582Z,7.60
2022-08-03T09:18:51.896Z,7.80
2022-08-03T09:21:32.255Z,8.80
2022-08-03T09:24:16.687Z,7.60
2022-08-03T09:26:59.651Z,9.90
2022-08-03T09:29:35.688Z,6.40
2022-08-03T09:32:09.558Z,7.00
2022-08-03T09:34:44.247Z,8.10
2022-08-03T09:37:20.214Z,8.10
2022-08-03T09:40:34.511Z,7.70
2022-08-03T09:43:08.616Z,9.50
2022-08-03T09:45:45.471Z,6.80
2022-08-03T09:48:32.414Z,7.50
2022-08-03T09:51:13.123Z,6.90
2022-08-03T09:54:05.778Z,8.20
2022-08-03T09:56:47.201Z,8.30
2022-08-03T09:59:28.889Z,7.60
2022-08-03T10:02:02.951Z,7.50
2022-08-03T10:04:36.432Z,5.20
2022-08-03T10:07:11.929Z,5.70
2022-08-03T10:09:57.665Z,6.60
2022-08-03T10:12:31.462Z,5.40
2022-08-03T10:15:05.968Z,8.60
2022-08-03T10:17:40.773Z,6.10
2022-08-03T10:20:15.614Z,6.90
2022-08-03T10:22:49.374Z,5.40
2022-08-03T10:25:23.650Z,4.90
2022-08-03T10:28:08.286Z,7.40
2022-08-03T10:30:46.037Z,8.60
2022-08-03T10:33:51.787Z,7.90
2022-08-03T10:36:17.836Z,7.50
2022-08-03T10:38:54.159Z,8.00
2022-08-03T10:41:34.125Z,5.80
2022-08-03T10:44:13.659Z,4.90
2022-08-03T10:46:48.904Z,6.70
2022-08-03T10:49:35.315Z,8.20
2022-08-03T10:52:13.794Z,6.20
2022-08-03T10:55:20.963Z,5.90
2022-08-03T10:57:58.850Z,10.30
2022-08-03T11:00:50.227Z,6.40
2022-08-03T11:03:23.571Z,6.80
2022-08-03T11:06:17.364Z,6.70
2022-08-03T11:08:52.484Z,7.60
2022-08-03T11:11:31.604Z,8.10
2022-08-03T11:14:08.415Z,7.90
2022-08-03T11:16:43.870Z,5.70
2022-08-03T11:19:20.399Z,6.60
2022-08-03T11:22:01.577Z,6.70
2022-08-03T11:25:04.871Z,8.50
2022-08-03T11:27:39.175Z,9.20
2022-08-03T11:30:27.490Z,6.90
2022-08-03T11:33:04.484Z,7.00
2022-08-03T11:35:58.577Z,6.10
2022-08-03T11:38:31.930Z,8.70
2022-08-03T11:41:05.548Z,5.60
2022-08-03T11:43:51.252Z,7.10
2022-08-03T11:46:28.562Z,10.30
2022-08-03T11:49:10.769Z,9.00
2022-08-03T11:51:44.870Z,5.80
2022-08-03T11:54:23.132Z,8.80
2022-08-03T11:56:56.397Z,7.60
2022-08-03T11:59:39.063Z,8.10
2022-08-03T12:02:13.652Z,7.70
2022-08-03T12:04:58.726Z,6.60
2022-08-03T12:08:03.515Z,8.00
2022-08-03T12:10:27.182Z,7.90
2022-08-03T12:14:28.888Z,8.20
2022-08-03T12:16:01.016Z,8.00
2022-08-03T12:18:34.522Z,9.30
2022-08-03T12:21:13.612Z,6.20
2022-08-03T12:23:47.163Z,9.20
2022-08-03T12:26:20.773Z,7.40
2022-08-03T12:28:54.248Z,6.40
2022-08-03T12:31:27.789Z,7.00
2022-08-03T12:34:04.422Z,9.00
2022-08-03T12:36:39.466Z,8.90
2022-08-03T12:39:13.693Z,7.80
2022-08-03T12:41:47.671Z,7.90
2022-08-03T12:44:31.508Z,8.20
2022-08-03T12:47:07.099Z,10.20
2022-08-03T12:49:50.642Z,8.70
2022-08-03T12:52:27.606Z,7.30
2022-08-03T12:55:02.458Z,7.10
2022-08-03T12:57:45.608Z,7.80
2022-08-03T13:00:28.859Z,6.10
2022-08-03T13:03:39.570Z,8.10
2022-08-03T13:06:02.628Z,6.30
2022-08-03T13:08:36.526Z,10.90
2022-08-03T13:11:53.521Z,6.70
2022-08-03T13:14:19.948Z,7.50
2022-08-03T13:16:53.929Z,7.70
2022-08-03T13:19:27.604Z,8.60
2022-08-03T13:22:04.250Z,8.80
2022-08-03T13:24:38.744Z,8.10
2022-08-03T13:28:11.075Z,9.90
2022-08-03T13:30:06.880Z,6.30
2022-08-03T13:32:40.495Z,5.70
2022-08-03T13:35:16.643Z,5.90
2022-08-03T13:37:50.573Z,7.40
2022-08-03T13:40:30.192Z,7.90
2022-08-03T13:43:04.053Z,8.80
2022-08-03T13:45:37.495Z,5.30
2022-08-03T13:48:11.135Z,8.40
2022-08-03T13:50:44.661Z,8.30
2022-08-03T13:53:18.621Z,8.80
2022-08-03T13:55:52.166Z,9.40
2022-08-03T13:58:26.148Z,7.30
2022-08-03T14:01:00.533Z,6.00
2022-08-03T14:03:34.095Z,7.20
2022-08-03T14:06:07.566Z,8.30
2022-08-03T14:08:41.127Z,6.60
2022-08-03T14:11:14.693Z,7.00
2022-08-03T14:13:48.283Z,7.90
2022-08-03T14:16:22.177Z,9.30
2022-08-03T14:18:56.224Z,7.30
2022-08-03T14:21:31.927Z,6.90
2022-08-03T14:24:05.545Z,7.40
2022-08-03T14:26:39.049Z,8.90
2022-08-03T14:29:12.412Z,9.40
2022-08-03T14:32:11.639Z,9.70
2022-08-03T14:34:39.657Z,9.50
2022-08-03T14:37:13.692Z,11.50
2022-08-03T14:40:03.673Z,11.50
2022-08-03T14:42:37.746Z,9.20
2022-08-03T14:45:20.062Z,6.70
2022-08-03T14:50:33.249Z,7.10
2022-08-03T14:50:51.456Z,7.60
2022-08-03T14:53:26.098Z,7.90
2022-08-03T14:55:59.629Z,10.20
2022-08-03T14:58:33.395Z,9.90
2022-08-03T15:02:03.119Z,7.30
2022-08-03T15:04:01.503Z,7.60
2022-08-03T15:06:35.181Z,9.00
2022-08-03T15:09:23.644Z,7.80
2022-08-03T15:11:57.581Z,8.20
2022-08-03T15:14:33.110Z,10.70
2022-08-03T15:17:12.430Z,8.70
2022-08-03T15:20:00.262Z,7.50
2022-08-03T15:22:42.895Z,11.90
2022-08-03T15:26:29.552Z,7.60
2022-08-03T15:28:10.302Z,9.30
2022-08-03T15:30:43.645Z,6.90
2022-08-03T15:33:17.087Z,8.00
2022-08-03T15:35:50.570Z,7.40
2022-08-03T15:38:26.163Z,7.30
2022-08-03T15:41:00.105Z,7.00
2022-08-03T15:43:33.816Z,9.20
2022-08-03T15:46:28.729Z,6.80
2022-08-03T15:49:03.212Z,8.50
2022-08-03T15:51:37.088Z,7.50
2022-08-03T15:54:10.930Z,7.50
2022-08-03T15:56:45.634Z,7.70
2022-08-03T15:59:19.994Z,6.80
2022-08-03T16:01:57.509Z,9.00
2022-08-03T16:04:30.619Z,10.30
2022-08-03T16:07:03.677Z,9.90
2022-08-03T16:09:43.026Z,8.90
2022-08-03T16:12:17.504Z,12.50
2022-08-03T16:14:53.367Z,9.90
2022-08-03T16:17:27.258Z,8.70
2022-08-03T16:20:00.672Z,8.30
2022-08-03T16:22:34.241Z,8.70
2022-08-03T16:25:13.981Z,10.00
2022-08-03T16:28:00.476Z,11.00
2022-08-03T16:30:42.461Z,7.10
2022-08-03T16:33:18.222Z,8.00
2022-08-03T16:35:51.662Z,10.20
2022-08-03T16:38:25.519Z,9.20
2022-08-03T16:40:59.290Z,12.00
2022-08-03T16:43:35.041Z,10.00
2022-08-03T16:46:08.404Z,7.60
2022-08-03T16:48:42.000Z,7.80
2022-08-03T16:51:15.407Z,8.80
2022-08-03T16:54:08.234Z,6.70
2022-08-03T16:56:42.164Z,8.10
2022-08-03T16:59:15.565Z,8.10
2022-08-03T17:01:49.803Z,13.40
2022-08-03T17:04:23.241Z,8.00
2022-08-03T17:06:57.499Z,7.50
2022-08-03T17:09:38.156Z,7.30
2022-08-03T17:12:12.744Z,7.00
2022-08-03T17:14:48.703Z,9.10
2022-08-03T17:17:29.740Z,7.90
2022-08-03T17:20:16.138Z,8.40
2022-08-03T17:22:57.750Z,8.30
2022-08-03T17:26:01.303Z,8.70
2022-08-03T17:28:48.217Z,10.60
2022-08-03T17:31:31.224Z,7.40
2022-08-03T17:34:07.012Z,11.20
2022-08-03T17:37:03.259Z,10.00
2022-08-03T17:39:59.076Z,8.40
2022-08-03T17:42:29.128Z,8.20
2022-08-03T17:45:15.595Z,11.10
2022-08-03T17:47:57.181Z,11.80
2022-08-03T17:50:43.433Z,8.80
2022-08-03T17:53:23.897Z,10.00
2022-08-03T17:56:38.832Z,10.60
2022-08-03T17:59:50.553Z,9.30
2022-08-03T18:02:47.781Z,8.30
2022-08-03T18:05:23.071Z,11.80
2022-08-03T18:08:19.480Z,8.10
2022-08-03T18:11:03.469Z,8.10
2022-08-03T18:13:58.658Z,7.80
2022-08-03T18:16:35.942Z,8.70
2022-08-03T18:19:13.704Z,8.90
2022-08-03T18:22:03.382Z,8.70
2022-08-03T18:24:38.439Z,9.20
2022-08-03T18:27:12.744Z,11.00
2022-08-03T18:29:46.318Z,7.70
2022-08-03T18:32:21.654Z,7.40
2022-08-03T18:35:00.470Z,9.80
2022-08-03T18:37:52.160Z,7.90
2022-08-03T18:40:28.321Z,8.80
2022-08-03T18:43:08.831Z,11.10
2022-08-03T18:45:55.811Z,11.10
2022-08-03T18:48:37.458Z,9.90
2022-08-03T18:51:28.644Z,11.70
2022-08-03T18:54:51.798Z,11.70
2022-08-03T18:59:48.106Z,12.70
2022-08-03T19:02:33.210Z,10.10
2022-08-03T19:05:10.886Z,10.40
2022-08-03T19:07:58.442Z,15.20
2022-08-03T19:10:36.381Z,12.20
2022-08-03T19:13:15.096Z,11.40
2022-08-03T19:15:53.037Z,13.50
2022-08-03T19:18:28.616Z,11.00
2022-08-03T19:21:15.393Z,13.80
2022-08-03T19:24:01.665Z,14.80
2022-08-03T19:26:40.452Z,14.20
2022-08-03T19:29:19.305Z,10.90
2022-08-03T19:32:03.300Z,15.30
2022-08-03T19:34:42.579Z,15.70
2022-08-03T19:37:22.058Z,13.70
2022-08-03T19:39:57.033Z,15.90
2022-08-03T19:42:33.963Z,19.30
2022-08-03T19:45:14.633Z,18.30
2022-08-03T19:47:53.192Z,13.20
2022-08-03T19:50:27.477Z,15.50
2022-08-03T19:53:08.092Z,15.80
2022-08-03T19:55:48.842Z,14.40
2022-08-03T19:58:28.673Z,17.60
2022-08-03T20:01:21.294Z,14.10
2022-08-03T20:03:56.784Z,18.60
2022-08-03T20:06:31.427Z,15.50
2022-08-03T20:09:06.775Z,18.00
2022-08-03T20:11:45.039Z,17.50
2022-08-03T20:14:20.737Z,15.60
2022-08-03T20:17:01.284Z,14.90
2022-08-03T20:19:40.682Z,16.30
2022-08-03T20:22:16.768Z,18.90
2022-08-03T20:24:53.176Z,13.80
2022-08-03T20:27:30.304Z,13.50
2022-08-03T20:33:00.798Z,16.30
2022-08-03T20:35:35.327Z,14.20
2022-08-03T20:38:09.928Z,16.00
2022-08-03T20:40:44.648Z,18.20
2022-08-03T20:43:20.075Z,15.70
2022-08-03T20:46:00.680Z,16.50
2022-08-03T20:48:49.690Z,16.00
2022-08-03T20:51:48.971Z,16.90
2022-08-03T20:54:22.861Z,16.50
2022-08-03T20:57:09.394Z,15.10
2022-08-03T20:59:50.255Z,14.10
2022-08-03T21:02:30.322Z,17.80
2022-08-03T21:05:08.520Z,18.20
2022-08-03T21:08:04.920Z,17.80
2022-08-03T21:10:43.183Z,17.60
2022-08-03T21:13:07.089Z,16.60
2022-08-03T21:13:25.010Z,17.70
2022-08-03T21:16:04.866Z,15.10
2022-08-03T21:18:51.500Z,12.40
2022-08-03T21:21:27.855Z,13.50
2022-08-03T21:24:03.746Z,15.80
2022-08-03T21:26:40.661Z,13.80
2022-08-03T21:29:17.104Z,18.40
2022-08-03T21:31:51.767Z,13.30
2022-08-03T21:34:25.996Z,13.50
2022-08-03T21:36:59.844Z,14.50
2022-08-03T21:39:33.729Z,16.50
2022-08-03T21:42:07.697Z,14.00
2022-08-03T21:44:41.384Z,12.30
2022-08-03T21:47:16.487Z,14.40
2022-08-03T21:50:08.768Z,13.80
2022-08-03T21:52:47.341Z,13.80
2022-08-03T21:55:21.865Z,10.20
2022-08-03T21:58:01.666Z,11.50
2022-08-03T22:00:35.192Z,11.10
2022-08-03T22:03:15.179Z,12.20
2022-08-03T22:05:51.195Z,11.80
2022-08-03T22:08:24.794Z,10.20
2022-08-03T22:10:58.200Z,14.60
2022-08-03T22:13:43.769Z,14.00
2022-08-03T22:16:18.897Z,11.10
2022-08-03T22:18:52.279Z,12.90
2022-08-03T22:21:36.280Z,12.40
2022-08-03T22:24:11.103Z,11.00
2022-08-03T22:27:06.629Z,11.40
2022-08-03T22:29:41.593Z,10.60
2022-08-03T22:32:15.374Z,10.80
2022-08-03T22:34:50.865Z,13.00
2022-08-03T22:37:27.044Z,12.60
2022-08-03T22:40:11.523Z,11.40
2022-08-03T22:42:46.640Z,9.90
2022-08-03T22:46:07.301Z,12.30
2022-08-03T22:48:15.204Z,13.20
2022-08-03T22:50:49.756Z,12.80
2022-08-03T22:53:24.050Z,12.30
2022-08-03T22:55:58.317Z,11.70
2022-08-03T22:58:31.614Z,13.60
2022-08-03T23:01:08.251Z,11.30
2022-08-03T23:04:01.040Z,11.70
2022-08-03T23:06:38.279Z,11.10
2022-08-03T23:09:15.254Z,10.50
2022-08-03T23:11:49.947Z,11.50
2022-08-03T23:14:24.596Z,11.90
2022-08-03T23:17:01.451Z,11.20
2022-08-03T23:19:41.648Z,11.10
2022-08-03T23:22:30.242Z,11.70
2022-08-03T23:25:05.181Z,12.00
2022-08-03T23:27:43.261Z,12.30
2022-08-03T23:30:17.545Z,11.00
2022-08-03T23:32:54.650Z,11.70
2022-08-03T23:36:29.295Z,11.70
2022-08-03T23:38:41.336Z,11.60
2022-08-03T23:41:16.549Z,12.60
2022-08-03T23:43:54.162Z,11.80
2022-08-03T23:46:30.656Z,13.30
2022-08-03T23:49:04.037Z,12.60
2022-08-03T23:51:44.585Z,12.80
2022-08-03T23:54:27.058Z,13.50
2022-08-03T23:57:10.686Z,12.00
2022-08-03T23:59:54.999Z,11.70
